Time;durP1;ratioP1;P1;durP2;ratioP2;P2;SDS_P1;SDS_P2;PMS_P1;PMS_P2;Temp;Humidity;BMP_temperature;BMP_pressure;BME280_temperature;BME280_humidity;BME280_pressure;Samples;Min_cycle;Max_cycle;Signal;HPM_P1;HPM_P2
2023/01/10 00:00:00;;;;;;;;;0.25;0.25;;;;;7.14;77.68;101128.81;6310938;22;45715;-79
2023/01/10 00:02:25;;;;;;;;;1.00;1.00;;;;;7.08;77.62;101131.69;6310277;22;45707;-80
2023/01/10 00:04:50;;;;;;;;;1.00;1.00;;;;;7.17;77.17;101141.72;6304262;22;46513;-79
2023/01/10 00:07:16;;;;;;;;;1.50;0.75;;;;;7.13;77.12;101140.13;6274319;22;45996;-79
2023/01/10 00:09:41;;;;;;;;;1.25;1.00;;;;;7.16;77.52;101142.63;6300616;22;45531;-80
2023/01/10 00:14:51;;;;;;;;;1.00;1.00;;;;;7.21;77.69;101145.00;6302604;22;46140;-79
2023/01/10 00:17:17;;;;;;;;;1.25;0.75;;;;;7.21;77.59;101138.03;6302131;22;46941;-79
2023/01/10 00:19:43;;;;;;;;;1.00;1.00;;;;;7.23;77.04;101149.22;6274986;22;45834;-77
2023/01/10 00:22:09;;;;;;;;;2.25;1.00;;;;;7.24;77.11;101157.84;6274942;22;45431;-80
2023/01/10 00:30:40;;;;;;;;;1.25;0.00;;;;;7.21;76.81;101178.88;6303280;22;45582;-80
2023/01/10 00:33:07;;;;;;;;;2.75;2.00;;;;;7.18;77.01;101180.69;6275428;22;45375;-80
2023/01/10 00:35:33;;;;;;;;;1.25;0.50;;;;;7.18;77.01;101180.69;6303248;22;45594;-80
2023/01/10 00:38:04;;;;;;;;;1.25;0.00;;;;;7.13;77.35;101176.63;6303220;22;46025;-79
2023/01/10 00:40:30;;;;;;;;;2.00;1.00;;;;;7.18;76.91;101178.09;6277837;22;45827;-79
2023/01/10 00:45:40;;;;;;;;;1.25;1.00;;;;;7.18;76.71;101202.47;6311314;22;45566;-81
2023/01/10 00:48:05;;;;;;;;;0.00;0.00;;;;;7.15;76.94;101185.22;6307653;22;45935;-79
2023/01/10 00:50:30;;;;;;;;;4.00;1.00;;;;;7.18;77.01;101192.88;6303692;22;45877;-79
2023/01/10 00:52:56;;;;;;;;;1.75;1.00;;;;;7.18;76.89;101195.47;6303315;22;45647;-79
2023/01/10 00:58:43;;;;;;;;;3.00;1.00;;;;;7.18;77.11;101205.09;6302393;22;45942;-80
2023/01/10 01:01:09;;;;;;;;;1.00;0.00;;;;;7.18;76.91;101203.28;6302044;22;45643;-79
2023/01/10 01:03:35;;;;;;;;;5.25;2.00;;;;;7.18;77.08;101201.53;6303198;22;45487;-79
2023/01/10 01:06:04;;;;;;;;;3.50;1.00;;;;;7.20;76.64;101204.06;6302781;22;45508;-80
2023/01/10 01:08:30;;;;;;;;;4.75;1.00;;;;;7.20;76.68;101204.06;6304477;22;46109;-78
2023/01/10 01:10:55;;;;;;;;;1.00;0.00;;;;;7.16;76.59;101210.34;6305450;22;45672;-78
2023/01/10 01:13:20;;;;;;;;;1.00;0.75;;;;;7.13;76.83;101207.88;6305818;22;45815;-79
2023/01/10 01:15:48;;;;;;;;;1.50;1.00;;;;;7.00;76.75;101180.72;6304581;22;45751;-79
2023/01/10 01:18:17;;;;;;;;;1.00;0.75;;;;;7.13;76.75;101224.34;6304899;22;45561;-78
2023/01/10 01:20:46;;;;;;;;;1.50;0.25;;;;;7.11;77.02;101228.81;6303506;22;45508;-78
2023/01/10 01:23:15;;;;;;;;;1.50;0.00;;;;;7.01;76.61;101213.69;6276282;22;45715;-79
2023/01/10 01:29:02;;;;;;;;;1.75;0.75;;;;;7.00;76.82;101228.47;6303560;22;45708;-79
2023/01/10 01:31:28;;;;;;;;;2.50;0.75;;;;;6.99;76.70;101236.34;6309098;22;45562;-78
2023/01/10 01:33:53;;;;;;;;;0.50;0.25;;;;;6.94;76.71;101243.53;6309996;22;45448;-79
2023/01/10 01:36:18;;;;;;;;;3.50;1.00;;;;;6.88;77.12;101234.25;6307191;22;45565;-78
2023/01/10 01:38:44;;;;;;;;;2.00;1.00;;;;;6.84;76.86;101227.50;6274729;22;46074;-80
2023/01/10 01:44:06;;;;;;;;;2.50;1.00;;;;;6.91;77.16;101252.31;6302665;22;45553;-78
2023/01/10 01:46:35;;;;;;;;;1.75;1.00;;;;;6.89;77.19;101259.38;6302242;22;46663;-80
2023/01/10 01:49:04;;;;;;;;;1.00;1.00;;;;;6.80;77.32;101241.56;6302035;22;46267;-79
2023/01/10 01:51:31;;;;;;;;;1.00;0.75;;;;;6.85;77.10;101244.81;6302837;22;45510;-79
2023/01/10 01:54:04;;;;;;;;;1.75;1.00;;;;;6.74;77.38;101216.66;6302744;22;45582;-79
2023/01/10 01:56:37;;;;;;;;;1.25;1.00;;;;;6.84;77.09;101224.03;6302406;22;45436;-79
2023/01/10 01:59:11;;;;;;;;;1.25;1.00;;;;;6.84;77.21;101237.06;6302819;22;46008;-79
2023/01/10 02:01:40;;;;;;;;;3.00;0.50;;;;;6.83;77.24;101246.63;6302710;22;45509;-79
2023/01/10 02:04:14;;;;;;;;;1.50;1.00;;;;;6.85;77.07;101249.16;6302288;22;45811;-80
2023/01/10 02:06:40;;;;;;;;;1.75;1.00;;;;;6.86;77.56;101254.28;6302429;22;48244;-79
2023/01/10 02:15:50;;;;;;;;;0.50;0.25;;;;;6.86;77.41;101258.66;6179108;22;45742;-80
2023/01/10 02:18:17;;;;;;;;;1.00;0.00;;;;;6.83;77.00;101264.84;6180630;23;45855;-79
2023/01/10 02:21:11;;;;;;;;;1.00;0.25;;;;;6.85;77.11;101278.66;6184228;23;46090;-79
2023/01/10 02:23:59;;;;;;;;;1.50;0.75;;;;;6.84;77.33;101282.19;6176726;23;45705;-81
2023/01/10 02:26:56;;;;;;;;;3.00;0.25;;;;;6.83;77.32;101284.84;6177353;23;45506;-78
2023/01/10 02:29:51;;;;;;;;;1.25;0.50;;;;;6.66;77.46;101260.41;6179052;23;45571;-78
2023/01/10 02:32:19;;;;;;;;;1.25;0.75;;;;;6.80;77.49;101282.38;6180121;23;46277;-79
2023/01/10 02:34:49;;;;;;;;;0.50;0.25;;;;;6.78;77.59;101290.25;6180009;23;45704;-80
2023/01/10 02:37:36;;;;;;;;;0.00;0.00;;;;;6.66;77.47;101269.97;6177066;23;45453;-80
2023/01/10 02:43:27;;;;;;;;;3.00;0.50;;;;;6.55;77.55;101265.22;6176216;23;45805;-81
2023/01/10 02:45:59;;;;;;;;;1.75;0.00;;;;;6.65;77.74;101283.88;6176482;23;45873;-79
2023/01/10 02:48:25;;;;;;;;;4.00;0.75;;;;;6.62;77.73;101278.81;6208064;22;45730;-79
2023/01/10 02:51:03;;;;;;;;;2.00;1.00;;;;;6.67;77.87;101295.09;6301199;22;46149;-80
2023/01/10 02:53:37;;;;;;;;;1.75;1.75;;;;;6.63;77.76;101304.81;6274370;22;46963;-80
2023/01/10 02:59:36;;;;;;;;;2.00;1.00;;;;;6.63;77.70;101324.78;6304578;22;45740;-79
2023/01/10 03:02:23;;;;;;;;;1.75;1.00;;;;;6.61;77.78;101327.44;6303768;22;46538;-80
2023/01/10 03:05:09;;;;;;;;;1.25;0.00;;;;;6.59;78.28;101308.44;6309330;22;46850;-80
2023/01/10 03:07:46;;;;;;;;;1.00;0.50;;;;;6.52;78.37;101290.56;6308517;22;45587;-79
2023/01/10 03:10:27;;;;;;;;;0.75;0.25;;;;;6.62;77.92;101297.06;6302602;22;45668;-80
2023/01/10 03:13:22;;;;;;;;;0.00;0.00;;;;;6.58;78.17;101287.69;6301932;22;46250;-80
2023/01/10 03:15:49;;;;;;;;;1.75;0.75;;;;;6.64;78.06;101305.66;6176293;23;46409;-79
2023/01/10 03:18:21;;;;;;;;;0.75;0.75;;;;;6.66;78.14;101294.25;6176764;23;45779;-80
2023/01/10 03:20:50;;;;;;;;;1.75;0.00;;;;;6.72;78.39;101290.53;6177123;23;45593;-80
2023/01/10 03:23:20;;;;;;;;;1.25;1.00;;;;;6.78;77.88;101297.22;6176835;23;47108;-80
2023/01/10 03:25:48;;;;;;;;;2.25;1.00;;;;;6.73;78.12;101285.25;6176099;23;46320;-80
2023/01/10 03:28:27;;;;;;;;;1.50;1.00;;;;;6.73;78.03;101287.84;6150287;23;45795;-79
2023/01/10 03:31:12;;;;;;;;;2.00;1.00;;;;;6.89;78.13;101306.25;6177939;23;45608;-81
2023/01/10 03:33:38;;;;;;;;;1.25;0.75;;;;;6.84;77.85;101299.56;6153119;23;46496;-80
2023/01/10 03:36:30;;;;;;;;;1.00;0.75;;;;;6.94;77.63;101317.31;6177813;23;46062;-79
2023/01/10 03:39:06;;;;;;;;;0.50;0.50;;;;;6.92;77.76;101320.88;6177403;23;45673;-79
2023/01/10 03:41:38;;;;;;;;;1.00;0.00;;;;;6.97;77.42;101316.31;6152208;23;45788;-80
2023/01/10 03:47:28;;;;;;;;;1.00;0.50;;;;;7.00;77.21;101326.59;6186623;23;45718;-78
2023/01/10 03:49:58;;;;;;;;;1.50;0.00;;;;;7.01;77.61;101323.09;6190461;23;45780;-80
2023/01/10 03:52:24;;;;;;;;;0.00;0.00;;;;;7.01;77.22;101325.69;6228278;22;45544;-80
2023/01/10 03:54:50;;;;;;;;;0.00;0.00;;;;;7.02;77.36;101336.03;6305525;22;45665;-80
2023/01/10 03:57:18;;;;;;;;;2.00;1.75;;;;;7.03;77.54;101335.13;6303052;22;45876;-79
2023/01/10 03:59:44;;;;;;;;;1.25;1.00;;;;;6.93;77.45;101314.75;6303623;22;45558;-78
2023/01/10 04:02:09;;;;;;;;;0.25;0.25;;;;;6.99;77.51;101325.75;6303504;22;45747;-80
2023/01/10 04:04:34;;;;;;;;;2.00;1.00;;;;;6.81;77.56;101302.28;6303315;22;45645;-80
2023/01/10 04:07:00;;;;;;;;;1.00;1.00;;;;;7.11;77.55;101340.84;6302962;22;45636;-79
2023/01/10 04:09:25;;;;;;;;;1.00;0.00;;;;;7.12;77.54;101341.69;6303365;22;45738;-78
2023/01/10 04:11:51;;;;;;;;;2.00;1.00;;;;;7.10;77.39;101330.50;6303198;22;45668;-79
2023/01/10 04:14:16;;;;;;;;;1.75;0.00;;;;;7.16;77.65;101344.09;6302854;22;45597;-79
2023/01/10 04:16:42;;;;;;;;;1.00;1.00;;;;;7.13;77.37;101333.78;6302376;22;45604;-78
2023/01/10 04:19:07;;;;;;;;;1.00;1.00;;;;;7.20;77.34;101339.56;6274976;22;45591;-80
2023/01/10 04:21:32;;;;;;;;;2.00;0.00;;;;;7.23;77.50;101341.22;6303838;22;45603;-81
2023/01/10 04:23:58;;;;;;;;;1.75;0.00;;;;;7.25;77.09;101335.00;6303244;22;45537;-80
2023/01/10 04:26:23;;;;;;;;;0.00;0.00;;;;;7.25;77.38;101335.00;6302665;22;45763;-80
2023/01/10 04:28:48;;;;;;;;;2.00;0.00;;;;;7.23;77.34;101329.03;6274357;22;45575;-80
2023/01/10 04:31:14;;;;;;;;;1.50;1.00;;;;;7.21;77.28;101324.78;6304919;22;45497;-79
2023/01/10 04:33:40;;;;;;;;;1.00;1.00;;;;;7.31;77.42;101339.94;6304720;22;47398;-80
2023/01/10 04:36:06;;;;;;;;;2.00;1.00;;;;;7.31;77.38;101342.53;6308986;22;46042;-77
2023/01/10 04:38:31;;;;;;;;;0.75;0.25;;;;;7.33;77.24;101342.47;6312006;22;45453;-79
2023/01/10 04:40:57;;;;;;;;;1.00;1.00;;;;;7.32;77.36;101340.78;6307379;22;45604;-80
2023/01/10 04:46:44;;;;;;;;;1.00;1.00;;;;;7.24;77.36;101338.50;6302266;22;46018;-81
2023/01/10 04:49:10;;;;;;;;;2.00;1.50;;;;;7.38;77.25;101354.38;6302273;22;45518;-80
2023/01/10 04:51:35;;;;;;;;;1.00;0.00;;;;;7.37;77.19;101357.91;6275451;22;45750;-79
2023/01/10 04:54:01;;;;;;;;;1.50;0.50;;;;;7.37;77.22;101350.09;6302811;22;45946;-81
2023/01/10 04:56:26;;;;;;;;;5.00;1.25;;;;;7.46;77.23;101359.22;6302956;22;45461;-79
2023/01/10 05:02:42;;;;;;;;;4.50;1.75;;;;;7.42;77.20;101342.91;6310048;22;45556;-79
2023/01/10 05:05:12;;;;;;;;;5.00;1.00;;;;;7.23;77.08;101308.19;6310104;22;45422;-80
2023/01/10 05:07:38;;;;;;;;;2.00;2.00;;;;;7.46;77.33;101344.44;6304581;22;45957;-80
2023/01/10 05:10:05;;;;;;;;;2.00;0.50;;;;;7.50;77.18;101352.97;6303318;22;45696;-80
2023/01/10 05:12:30;;;;;;;;;2.50;1.00;;;;;7.47;77.10;101351.34;6303128;22;45510;-80
2023/01/10 05:14:56;;;;;;;;;1.75;1.00;;;;;7.52;77.24;101338.09;6304605;22;45535;-81
2023/01/10 05:17:21;;;;;;;;;0.00;0.00;;;;;7.47;77.16;101342.69;6305093;22;46098;-78
2023/01/10 05:19:46;;;;;;;;;2.50;1.00;;;;;7.51;77.28;101341.59;6306719;22;45493;-81
2023/01/10 05:22:12;;;;;;;;;1.00;1.00;;;;;7.56;77.15;101344.84;6310325;22;45623;-80
2023/01/10 05:24:37;;;;;;;;;3.25;0.75;;;;;7.57;77.15;101344.78;6311732;22;45591;-79
2023/01/10 05:27:02;;;;;;;;;5.50;1.00;;;;;7.58;77.19;101343.03;6306043;22;45577;-79
2023/01/10 05:33:03;;;;;;;;;2.25;1.00;;;;;7.63;77.18;101351.47;6297017;22;46190;-79
2023/01/10 05:35:29;;;;;;;;;2.00;1.00;;;;;7.64;76.90;101353.16;6302130;22;46278;-78
2023/01/10 05:37:54;;;;;;;;;1.75;1.25;;;;;7.65;76.86;101349.66;6302748;22;45704;-78
2023/01/10 05:40:20;;;;;;;;;1.50;1.00;;;;;7.56;77.06;101330.06;6302578;22;45602;-80
2023/01/10 05:42:45;;;;;;;;;1.50;0.00;;;;;7.66;76.84;101356.56;6302749;22;45476;-80
2023/01/10 05:45:11;;;;;;;;;5.00;2.00;;;;;7.66;76.79;101348.75;6302528;22;45404;-78
2023/01/10 05:47:36;;;;;;;;;1.25;0.75;;;;;7.57;76.67;101336.97;6301990;22;45479;-80
2023/01/10 05:50:02;;;;;;;;;2.00;1.00;;;;;7.65;76.76;101348.81;6302724;22;45936;-80
2023/01/10 05:52:27;;;;;;;;;3.25;1.50;;;;;7.65;76.74;101343.59;6302798;22;45538;-80
2023/01/10 05:54:52;;;;;;;;;5.00;2.00;;;;;7.63;76.64;101337.59;6302771;22;46366;-80
2023/01/10 05:57:18;;;;;;;;;1.75;1.00;;;;;7.67;77.05;101344.34;6274734;22;45653;-79
2023/01/10 06:03:05;;;;;;;;;2.00;2.00;;;;;7.67;76.83;101341.72;6303953;22;45614;-80
2023/01/10 06:05:30;;;;;;;;;0.00;0.00;;;;;7.68;76.89;101336.47;6305872;22;46663;-80
2023/01/10 06:07:56;;;;;;;;;4.75;1.00;;;;;7.63;76.83;101321.94;6306087;22;47151;-81
2023/01/10 06:10:21;;;;;;;;;3.00;2.00;;;;;7.69;76.59;101332.09;6310818;22;45574;-80
2023/01/10 06:12:48;;;;;;;;;3.50;2.00;;;;;7.69;76.76;101339.91;6311149;22;45780;-80
2023/01/10 06:18:36;;;;;;;;;3.75;2.00;;;;;7.69;76.83;101339.91;6307031;22;45507;-79
2023/01/10 06:21:01;;;;;;;;;2.25;2.00;;;;;7.49;76.87;101309.56;6306175;22;45451;-82
2023/01/10 06:23:27;;;;;;;;;3.50;2.50;;;;;7.68;76.65;101336.47;6304384;22;45681;-82
2023/01/10 06:25:53;;;;;;;;;2.25;1.50;;;;;7.61;76.82;101326.41;6302052;22;45451;-80
2023/01/10 06:28:18;;;;;;;;;2.50;1.75;;;;;7.66;76.48;101333.09;6302499;22;46375;-81
2023/01/10 06:34:05;;;;;;;;;3.25;2.00;;;;;7.61;76.66;101331.63;6296292;22;45821;-81
2023/01/10 06:36:30;;;;;;;;;4.00;2.25;;;;;7.59;76.55;101342.97;6302449;22;45503;-81
2023/01/10 06:38:55;;;;;;;;;4.75;1.00;;;;;7.56;76.53;101331.81;6302491;22;45620;-80
2023/01/10 06:41:21;;;;;;;;;2.25;1.00;;;;;7.62;76.52;101346.31;6302248;22;45484;-80
2023/01/10 06:43:48;;;;;;;;;3.50;2.00;;;;;7.60;76.54;101349.03;6302642;22;45636;-81
2023/01/10 06:46:16;;;;;;;;;1.75;1.50;;;;;7.52;76.61;101344.16;6301823;22;46384;-81
2023/01/10 06:48:43;;;;;;;;;5.00;4.50;;;;;7.57;76.68;101354.38;6302182;22;46344;-78
2023/01/10 06:51:09;;;;;;;;;2.00;1.00;;;;;7.57;76.41;101359.59;6302861;22;45432;-78
2023/01/10 06:53:34;;;;;;;;;4.25;2.25;;;;;7.34;76.68;101316.31;6303645;22;45608;-77
2023/01/10 06:55:59;;;;;;;;;2.00;2.00;;;;;7.58;76.65;101356.91;6303628;22;45503;-77
2023/01/10 06:58:25;;;;;;;;;2.50;2.00;;;;;7.61;76.76;101355.94;6311328;22;46119;-78
2023/01/10 07:04:12;;;;;;;;;3.50;2.00;;;;;7.48;76.27;101326.13;6300956;22;45702;-77
2023/01/10 07:06:38;;;;;;;;;2.50;2.00;;;;;7.66;76.69;101353.09;6302946;22;45519;-78
2023/01/10 07:09:05;;;;;;;;;2.00;2.00;;;;;7.68;76.61;101362.53;6303193;22;45977;-76
2023/01/10 07:11:30;;;;;;;;;3.00;2.75;;;;;7.69;76.78;101361.63;6303495;22;45679;-78
2023/01/10 07:13:56;;;;;;;;;4.50;2.00;;;;;7.72;76.54;101353.63;6303348;22;45535;-78
2023/01/10 07:19:43;;;;;;;;;5.25;4.50;;;;;7.61;76.56;101329.00;6302751;22;46090;-79
2023/01/10 07:22:08;;;;;;;;;4.00;3.25;;;;;7.77;76.64;101348.22;6302187;22;45611;-78
2023/01/10 07:24:34;;;;;;;;;3.25;2.00;;;;;7.75;76.64;101342.22;6274311;22;45594;-76
2023/01/10 07:26:59;;;;;;;;;4.25;2.00;;;;;7.80;76.52;101354.13;6301661;22;45858;-75
2023/01/10 07:29:24;;;;;;;;;5.00;3.00;;;;;7.82;76.40;101346.25;6302668;22;46186;-77
2023/01/10 07:31:50;;;;;;;;;5.00;2.25;;;;;7.77;76.73;101343.88;6304311;22;45593;-75
2023/01/10 07:34:16;;;;;;;;;5.50;2.00;;;;;7.85;76.55;101340.88;6304407;22;45517;-76
2023/01/10 07:36:41;;;;;;;;;1.50;1.50;;;;;7.75;76.49;101322.22;6275798;22;47939;-77
2023/01/10 07:39:07;;;;;;;;;3.00;3.00;;;;;7.80;76.29;101329.81;6303676;22;45542;-75
2023/01/10 07:41:32;;;;;;;;;4.25;3.25;;;;;7.86;76.61;101343.41;6304639;22;45817;-76
2023/01/10 07:43:57;;;;;;;;;4.50;2.75;;;;;7.87;76.29;101336.44;6305099;22;45423;-76
2023/01/10 07:49:45;;;;;;;;;3.00;2.00;;;;;7.86;76.31;101332.97;6303702;22;45658;-79
2023/01/10 07:52:11;;;;;;;;;3.75;3.25;;;;;7.79;76.52;101321.13;6302651;22;45439;-77
2023/01/10 07:54:37;;;;;;;;;4.50;3.50;;;;;7.84;76.42;101329.59;6302642;22;45662;-77
2023/01/10 07:57:02;;;;;;;;;4.00;3.00;;;;;7.87;76.24;101331.22;6302535;22;47305;-78
2023/01/10 07:59:28;;;;;;;;;4.00;3.00;;;;;7.82;76.22;101333.22;6274767;22;48264;-79
2023/01/10 08:05:16;;;;;;;;;3.50;3.25;;;;;7.83;76.13;101327.91;6302856;22;45515;-78
2023/01/10 08:07:41;;;;;;;;;6.00;2.00;;;;;7.87;76.08;101332.06;6302217;22;45544;-77
2023/01/10 08:10:07;;;;;;;;;5.50;3.00;;;;;7.81;76.31;101326.28;6303018;22;46554;-75
2023/01/10 08:12:32;;;;;;;;;3.50;2.00;;;;;7.87;76.18;101331.22;6302191;22;45478;-79
2023/01/10 08:14:58;;;;;;;;;6.00;5.00;;;;;7.84;76.00;101328.75;6302703;22;45693;-78
2023/01/10 08:17:23;;;;;;;;;3.25;2.00;;;;;7.84;76.09;101328.75;6300450;22;45749;-78
2023/01/10 08:19:49;;;;;;;;;2.25;2.00;;;;;7.87;76.19;101345.13;6302795;22;45996;-78
2023/01/10 08:22:14;;;;;;;;;3.00;3.00;;;;;7.88;76.09;101343.34;6302495;22;45614;-75
2023/01/10 08:24:40;;;;;;;;;4.25;2.00;;;;;7.86;76.03;101340.81;6303660;22;45533;-76
2023/01/10 08:27:05;;;;;;;;;6.50;4.50;;;;;7.90;76.11;101338.88;6302897;22;45554;-76
2023/01/10 08:29:31;;;;;;;;;5.00;2.00;;;;;7.92;76.02;101350.09;6277562;22;47321;-78
2023/01/10 08:35:18;;;;;;;;;2.75;1.75;;;;;7.86;76.06;101319.09;6298640;22;45719;-80
2023/01/10 08:37:43;;;;;;;;;3.00;3.00;;;;;7.95;76.10;101329.06;6302475;22;46103;-78
2023/01/10 08:40:09;;;;;;;;;2.25;2.25;;;;;7.92;76.23;101321.41;6303446;22;46581;-77
2023/01/10 08:42:37;;;;;;;;;6.00;2.50;;;;;7.96;76.17;101328.16;6303813;22;45560;-76
2023/01/10 08:45:03;;;;;;;;;2.00;2.00;;;;;7.80;76.12;101296.75;6306112;22;45419;-77
2023/01/10 08:50:50;;;;;;;;;10.75;5.00;;;;;7.95;76.05;101316.88;6306796;22;45717;-78
2023/01/10 08:53:16;;;;;;;;;4.50;3.00;;;;;7.99;76.06;101326.22;6275401;22;45735;-77
2023/01/10 08:55:41;;;;;;;;;2.75;1.00;;;;;7.96;76.18;101330.75;6302343;22;45718;-81
2023/01/10 08:58:08;;;;;;;;;5.00;2.25;;;;;8.06;76.19;101332.00;6274832;22;46506;-77
2023/01/10 09:00:34;;;;;;;;;7.00;3.00;;;;;8.00;76.30;101330.53;6301852;22;46074;-82
2023/01/10 09:02:59;;;;;;;;;5.00;4.00;;;;;8.03;76.35;101332.16;6302110;22;45512;-79
2023/01/10 09:05:25;;;;;;;;;3.00;2.50;;;;;8.09;76.18;101342.31;6302726;22;45590;-79
2023/01/10 09:07:50;;;;;;;;;6.00;4.50;;;;;8.09;76.47;101347.53;6302946;22;45483;-80
2023/01/10 09:10:16;;;;;;;;;3.00;2.00;;;;;8.08;76.51;101329.31;6302992;22;46280;-79
2023/01/10 09:12:54;;;;;;;;;7.00;4.00;;;;;8.03;76.35;101319.13;6303156;22;45757;-77
2023/01/10 09:15:24;;;;;;;;;3.50;3.00;;;;;7.86;76.74;101285.19;6274878;22;45467;-76
2023/01/10 09:21:11;;;;;;;;;7.25;4.75;;;;;8.23;77.10;101341.63;6302611;22;45697;-75
2023/01/10 09:23:38;;;;;;;;;7.50;4.50;;;;;8.23;76.73;101334.63;6302094;22;45402;-73
2023/01/10 09:26:04;;;;;;;;;3.00;3.00;;;;;8.27;76.65;101330.94;6274168;22;45972;-77
2023/01/10 09:28:29;;;;;;;;;4.00;3.50;;;;;8.21;76.70;101314.72;6301122;22;47354;-76
2023/01/10 09:30:55;;;;;;;;;2.00;2.00;;;;;8.28;76.60;101316.13;6302305;22;45949;-77
2023/01/10 09:33:20;;;;;;;;;3.00;2.00;;;;;8.25;76.92;101318.91;6274163;22;45436;-76
2023/01/10 09:35:46;;;;;;;;;5.25;3.00;;;;;8.31;76.72;101313.41;6302070;22;45538;-77
2023/01/10 09:38:15;;;;;;;;;3.00;2.50;;;;;8.33;76.94;101328.06;6303730;22;47309;-77
2023/01/10 09:41:17;;;;;;;;;5.25;2.00;;;;;8.31;76.83;101311.63;6302862;22;48029;-76
2023/01/10 09:44:13;;;;;;;;;7.50;5.00;;;;;8.37;77.03;101310.47;6301619;22;45856;-77
2023/01/10 09:46:51;;;;;;;;;7.00;6.25;;;;;8.38;77.02;101306.94;6274112;22;45574;-75
2023/01/10 09:49:19;;;;;;;;;7.50;3.50;;;;;8.39;77.20;101306.88;6302324;22;45837;-75
2023/01/10 09:51:48;;;;;;;;;5.50;5.00;;;;;8.40;77.13;101299.88;6273784;22;47331;-76
2023/01/10 09:54:23;;;;;;;;;9.00;5.00;;;;;8.42;76.93;101295.44;6274126;22;45573;-76
2023/01/10 09:56:49;;;;;;;;;6.50;6.25;;;;;8.37;77.27;101293.03;6301900;22;45507;-77
2023/01/10 09:59:19;;;;;;;;;7.25;5.75;;;;;8.45;77.30;101310.94;6301806;22;45458;-75
2023/01/10 10:01:47;;;;;;;;;8.50;6.75;;;;;8.46;77.03;101307.41;6302043;22;45989;-77
2023/01/10 10:04:28;;;;;;;;;6.00;5.25;;;;;8.47;77.23;101309.09;6301805;22;45753;-75
2023/01/10 10:06:53;;;;;;;;;9.00;6.00;;;;;8.41;77.21;101296.34;6302236;22;45702;-76
2023/01/10 10:09:25;;;;;;;;;5.00;5.00;;;;;8.48;77.40;101302.94;6302286;22;46698;-75
2023/01/10 10:12:05;;;;;;;;;7.25;5.00;;;;;8.50;77.52;101301.09;6302292;22;45918;-76
2023/01/10 10:14:30;;;;;;;;;8.00;5.75;;;;;8.50;77.24;101311.53;6274499;22;45565;-77
2023/01/10 10:17:12;;;;;;;;;9.00;6.00;;;;;8.53;77.31;101313.16;6303348;22;45574;-78
2023/01/10 10:20:01;;;;;;;;;7.00;5.00;;;;;8.55;77.22;101306.06;6303604;22;46339;-78
2023/01/10 10:23:17;;;;;;;;;6.00;5.00;;;;;8.55;77.47;101301.69;6302011;22;47106;-75
2023/01/10 10:25:56;;;;;;;;;6.75;5.00;;;;;8.52;77.51;101291.44;6178131;23;45748;-76
2023/01/10 10:29:19;;;;;;;;;10.00;5.75;;;;;8.57;77.62;101299.03;6176361;22;45703;-76
2023/01/10 10:32:03;;;;;;;;;6.75;5.00;;;;;8.57;77.57;101276.38;6142821;23;46462;-75
2023/01/10 10:34:42;;;;;;;;;5.75;5.25;;;;;8.56;77.42;101269.44;6179837;23;46143;-76
2023/01/10 10:37:16;;;;;;;;;5.00;5.00;;;;;8.62;77.70;101261.28;6180207;23;45803;-76
2023/01/10 10:39:51;;;;;;;;;7.25;6.75;;;;;8.63;77.72;101244.72;6177154;23;45741;-76
2023/01/10 10:42:18;;;;;;;;;6.00;5.50;;;;;8.67;77.74;101246.22;6175939;23;46471;-75
2023/01/10 10:44:53;;;;;;;;;7.00;5.75;;;;;8.69;77.66;101240.94;6176871;23;46066;-76
2023/01/10 10:47:22;;;;;;;;;5.25;5.00;;;;;8.71;77.78;101236.44;6176232;23;45699;-76
2023/01/10 10:50:12;;;;;;;;;5.75;5.00;;;;;8.75;77.87;101235.34;6176810;23;45709;-75
2023/01/10 10:52:38;;;;;;;;;6.50;6.00;;;;;8.73;77.87;101222.41;6175774;23;45625;-75
2023/01/10 10:55:06;;;;;;;;;7.50;4.00;;;;;8.74;77.66;101220.63;6175510;23;47124;-75
2023/01/10 10:57:36;;;;;;;;;4.00;2.50;;;;;8.78;77.76;101217.75;6176705;23;45854;-75
2023/01/10 11:00:04;;;;;;;;;6.00;4.00;;;;;8.80;77.69;101222.88;6186630;22;45686;-77
2023/01/10 11:02:31;;;;;;;;;4.00;2.00;;;;;8.80;77.67;101223.72;6301442;22;46468;-75
2023/01/10 11:05:03;;;;;;;;;3.00;3.00;;;;;8.83;77.92;101215.75;6301816;22;46004;-76
2023/01/10 11:07:34;;;;;;;;;6.00;5.00;;;;;8.82;77.70;101205.38;6302379;22;45633;-75
2023/01/10 11:12:40;;;;;;;;;4.00;4.00;;;;;8.88;77.89;101197.19;6304509;22;45614;-74
2023/01/10 11:15:06;;;;;;;;;6.50;5.00;;;;;8.88;77.71;101194.59;6301761;22;45888;-75
2023/01/10 11:17:39;;;;;;;;;2.75;2.75;;;;;8.86;77.72;101183.38;6301057;22;45779;-75
2023/01/10 11:20:13;;;;;;;;;6.50;3.00;;;;;8.89;77.76;101172.75;6301493;22;45731;-75
2023/01/10 11:22:45;;;;;;;;;3.00;2.50;;;;;8.90;77.47;101169.22;6301100;22;47225;-75
2023/01/10 11:25:17;;;;;;;;;5.25;5.00;;;;;8.89;77.67;101159.69;6300873;22;47162;-75
2023/01/10 11:27:59;;;;;;;;;6.00;5.00;;;;;8.91;78.02;101168.28;6301708;22;45605;-76
2023/01/10 11:30:29;;;;;;;;;7.00;5.00;;;;;8.94;78.05;101159.44;6301818;22;45727;-78
2023/01/10 11:32:58;;;;;;;;;5.75;3.00;;;;;8.94;78.36;101152.44;6300113;22;47377;-75
2023/01/10 11:35:28;;;;;;;;;7.00;5.50;;;;;8.97;77.94;101140.97;6267305;22;48159;-77
2023/01/10 11:38:29;;;;;;;;;9.00;3.00;;;;;8.97;78.06;101126.13;6269720;22;45801;-78
2023/01/10 11:41:01;;;;;;;;;6.00;5.50;;;;;8.99;78.00;101120.81;6150573;23;45541;-74
2023/01/10 11:43:37;;;;;;;;;5.00;3.50;;;;;8.99;78.02;101120.81;6175586;23;45668;-76
2023/01/10 11:46:14;;;;;;;;;4.00;2.75;;;;;9.02;78.16;101118.03;6175200;23;47271;-76
2023/01/10 11:48:48;;;;;;;;;5.50;3.00;;;;;9.01;78.09;101118.97;6175670;23;45670;-75
2023/01/10 11:51:26;;;;;;;;;3.50;3.00;;;;;8.99;78.10;101099.91;6177411;23;45556;-74
2023/01/10 11:53:58;;;;;;;;;4.00;3.00;;;;;9.03;78.67;101098.81;6152362;23;48355;-75
2023/01/10 11:56:30;;;;;;;;;2.50;2.00;;;;;9.08;78.45;101092.38;6179054;23;45918;-76
2023/01/10 11:59:06;;;;;;;;;3.50;2.25;;;;;9.09;78.16;101106.31;6179756;23;45597;-75
2023/01/10 12:01:33;;;;;;;;;5.00;2.25;;;;;9.12;78.21;101085.25;6178335;23;45633;-75
2023/01/10 12:03:59;;;;;;;;;3.00;3.00;;;;;9.11;78.48;101078.31;6177327;23;46483;-76
2023/01/10 12:06:26;;;;;;;;;5.00;3.00;;;;;9.07;78.47;101069.78;6176886;23;47066;-76
2023/01/10 12:08:55;;;;;;;;;2.75;2.00;;;;;9.17;78.37;101084.03;6177705;23;45910;-76
2023/01/10 12:11:30;;;;;;;;;2.25;0.50;;;;;9.18;78.53;101070.00;6177613;23;45493;-75
2023/01/10 12:13:58;;;;;;;;;4.75;3.00;;;;;9.20;78.35;101069.94;6186550;22;46483;-80
2023/01/10 12:16:30;;;;;;;;;6.00;2.25;;;;;9.22;78.48;101058.47;6269201;22;48351;-76
2023/01/10 12:19:03;;;;;;;;;3.00;3.00;;;;;9.22;78.68;101049.78;6271734;22;45583;-74
2023/01/10 12:21:42;;;;;;;;;5.75;4.50;;;;;9.24;78.52;101040.91;6271617;22;45493;-74
2023/01/10 12:24:24;;;;;;;;;3.00;3.00;;;;;9.26;78.64;101040.81;6271395;22;45543;-74
2023/01/10 12:26:52;;;;;;;;;5.50;4.50;;;;;9.26;78.55;101035.59;6271290;22;45470;-74
2023/01/10 12:29:26;;;;;;;;;3.00;2.00;;;;;9.31;78.60;101033.56;6271109;22;45825;-74
2023/01/10 12:31:54;;;;;;;;;5.50;2.25;;;;;9.26;78.73;101025.16;6271415;22;45555;-74
2023/01/10 12:34:25;;;;;;;;;5.00;2.75;;;;;9.35;78.77;101023.75;6274965;22;46133;-76
2023/01/10 12:37:04;;;;;;;;;6.75;3.00;;;;;9.35;78.96;101021.13;6301816;22;46231;-75
2023/01/10 12:39:39;;;;;;;;;2.00;1.50;;;;;9.33;78.86;101008.16;6302242;22;45649;-75
2023/01/10 12:45:22;;;;;;;;;2.50;2.25;;;;;9.35;79.15;101011.50;6307330;22;46250;-75
2023/01/10 12:47:47;;;;;;;;;5.75;3.00;;;;;9.38;79.06;101016.56;6304325;22;46049;-75
2023/01/10 12:50:18;;;;;;;;;2.00;2.00;;;;;9.40;79.00;101009.47;6302081;22;45656;-74
2023/01/10 12:52:58;;;;;;;;;1.75;1.00;;;;;9.41;79.25;101002.47;6302868;22;45568;-75
2023/01/10 12:55:29;;;;;;;;;2.00;2.00;;;;;9.42;79.32;100999.78;6301992;22;46342;-75
2023/01/10 12:58:01;;;;;;;;;1.75;1.75;;;;;9.41;79.14;100997.25;6302006;22;46190;-75
2023/01/10 13:00:35;;;;;;;;;2.75;1.25;;;;;9.42;79.28;100998.91;6301609;22;45557;-75
2023/01/10 13:03:08;;;;;;;;;3.00;2.00;;;;;9.43;79.15;100990.16;6301357;22;45460;-74
2023/01/10 13:05:33;;;;;;;;;5.00;2.25;;;;;9.41;79.02;100973.69;6302347;22;46521;-74
2023/01/10 13:08:08;;;;;;;;;1.00;1.00;;;;;9.47;79.30;100989.03;6304420;22;45714;-74
2023/01/10 13:10:40;;;;;;;;;2.00;2.00;;;;;9.47;79.50;100978.56;6303763;22;45669;-75
2023/01/10 13:13:25;;;;;;;;;2.00;1.75;;;;;9.47;79.45;100975.94;6303316;22;45380;-74